sensor_id;sensor_type;location;lat;lon;timestamp;P1;durP1;ratioP1;P2;durP2;ratioP2
5032;SDS011;2535;49.888;8.942;2022-08-18T00:02:06;2.17;;;1.57;;
5032;SDS011;2535;49.888;8.942;2022-08-18T00:04:32;1.93;;;1.27;;
5032;SDS011;2535;49.888;8.942;2022-08-18T00:07:03;1.33;;;1.23;;
5032;SDS011;2535;49.888;8.942;2022-08-18T00:09:29;2.13;;;1.43;;
5032;SDS011;2535;49.888;8.942;2022-08-18T00:11:54;2.70;;;1.60;;
5032;SDS011;2535;49.888;8.942;2022-08-18T00:14:20;2.60;;;1.83;;
5032;SDS011;2535;49.888;8.942;2022-08-18T00:16:47;3.20;;;1.77;;
5032;SDS011;2535;49.888;8.942;2022-08-18T00:19:13;1.60;;;1.50;;
5032;SDS011;2535;49.888;8.942;2022-08-18T00:21:39;1.73;;;1.50;;
5032;SDS011;2535;49.888;8.942;2022-08-18T00:24:05;2.37;;;1.67;;
5032;SDS011;2535;49.888;8.942;2022-08-18T00:26:30;1.40;;;1.20;;
5032;SDS011;2535;49.888;8.942;2022-08-18T00:28:56;1.80;;;1.57;;
5032;SDS011;2535;49.888;8.942;2022-08-18T00:31:22;1.60;;;1.13;;
5032;SDS011;2535;49.888;8.942;2022-08-18T00:33:49;2.30;;;2.00;;
5032;SDS011;2535;49.888;8.942;2022-08-18T00:36:15;3.47;;;1.60;;
5032;SDS011;2535;49.888;8.942;2022-08-18T00:38:41;1.23;;;1.13;;
5032;SDS011;2535;49.888;8.942;2022-08-18T00:41:07;3.90;;;2.10;;
5032;SDS011;2535;49.888;8.942;2022-08-18T00:43:36;1.37;;;1.27;;
5032;SDS011;2535;49.888;8.942;2022-08-18T00:46:14;5.33;;;1.40;;
5032;SDS011;2535;49.888;8.942;2022-08-18T00:48:41;1.57;;;1.47;;
5032;SDS011;2535;49.888;8.942;2022-08-18T00:51:09;1.30;;;1.10;;
5032;SDS011;2535;49.888;8.942;2022-08-18T00:53:37;1.43;;;1.33;;
5032;SDS011;2535;49.888;8.942;2022-08-18T00:56:09;1.73;;;1.27;;
5032;SDS011;2535;49.888;8.942;2022-08-18T00:59:20;1.10;;;1.00;;
5032;SDS011;2535;49.888;8.942;2022-08-18T01:01:25;1.37;;;1.27;;
5032;SDS011;2535;49.888;8.942;2022-08-18T01:03:57;1.43;;;1.33;;
5032;SDS011;2535;49.888;8.942;2022-08-18T01:06:28;2.23;;;2.03;;
5032;SDS011;2535;49.888;8.942;2022-08-18T01:08:56;1.63;;;0.90;;
5032;SDS011;2535;49.888;8.942;2022-08-18T01:11:22;7.13;;;1.83;;
5032;SDS011;2535;49.888;8.942;2022-08-18T01:13:48;2.13;;;1.77;;
5032;SDS011;2535;49.888;8.942;2022-08-18T01:16:14;2.20;;;1.23;;
5032;SDS011;2535;49.888;8.942;2022-08-18T01:19:06;0.80;;;0.80;;
5032;SDS011;2535;49.888;8.942;2022-08-18T01:21:54;1.10;;;0.83;;
5032;SDS011;2535;49.888;8.942;2022-08-18T01:24:29;1.47;;;1.30;;
5032;SDS011;2535;49.888;8.942;2022-08-18T01:27:16;1.60;;;1.23;;
5032;SDS011;2535;49.888;8.942;2022-08-18T01:29:43;4.73;;;2.03;;
5032;SDS011;2535;49.888;8.942;2022-08-18T01:32:10;1.33;;;1.20;;
5032;SDS011;2535;49.888;8.942;2022-08-18T01:34:36;5.73;;;1.50;;
5032;SDS011;2535;49.888;8.942;2022-08-18T01:37:03;6.83;;;2.07;;
5032;SDS011;2535;49.888;8.942;2022-08-18T01:39:30;2.97;;;1.73;;
5032;SDS011;2535;49.888;8.942;2022-08-18T01:41:56;1.30;;;1.13;;
5032;SDS011;2535;49.888;8.942;2022-08-18T01:44:22;12.23;;;1.70;;
5032;SDS011;2535;49.888;8.942;2022-08-18T01:46:48;2.60;;;1.20;;
5032;SDS011;2535;49.888;8.942;2022-08-18T01:49:14;5.43;;;1.43;;
5032;SDS011;2535;49.888;8.942;2022-08-18T01:51:40;4.83;;;1.77;;
5032;SDS011;2535;49.888;8.942;2022-08-18T01:54:10;1.73;;;1.43;;
5032;SDS011;2535;49.888;8.942;2022-08-18T01:56:36;2.03;;;1.57;;
5032;SDS011;2535;49.888;8.942;2022-08-18T01:59:02;1.97;;;1.73;;
5032;SDS011;2535;49.888;8.942;2022-08-18T02:01:29;2.87;;;2.10;;
5032;SDS011;2535;49.888;8.942;2022-08-18T02:03:55;1.90;;;1.23;;
5032;SDS011;2535;49.888;8.942;2022-08-18T02:06:23;1.73;;;1.13;;
5032;SDS011;2535;49.888;8.942;2022-08-18T02:08:49;5.80;;;1.73;;
5032;SDS011;2535;49.888;8.942;2022-08-18T02:11:15;1.43;;;1.33;;
5032;SDS011;2535;49.888;8.942;2022-08-18T02:13:41;3.07;;;0.90;;
5032;SDS011;2535;49.888;8.942;2022-08-18T02:16:07;1.87;;;1.47;;
5032;SDS011;2535;49.888;8.942;2022-08-18T02:18:35;4.20;;;1.60;;
5032;SDS011;2535;49.888;8.942;2022-08-18T02:21:06;1.57;;;1.10;;
5032;SDS011;2535;49.888;8.942;2022-08-18T02:23:32;1.40;;;0.97;;
5032;SDS011;2535;49.888;8.942;2022-08-18T02:26:00;1.60;;;1.50;;
5032;SDS011;2535;49.888;8.942;2022-08-18T02:28:27;3.53;;;1.80;;
5032;SDS011;2535;49.888;8.942;2022-08-18T02:30:54;7.20;;;1.63;;
5032;SDS011;2535;49.888;8.942;2022-08-18T02:33:20;1.63;;;1.47;;
5032;SDS011;2535;49.888;8.942;2022-08-18T02:35:50;1.97;;;1.10;;
5032;SDS011;2535;49.888;8.942;2022-08-18T02:38:16;4.90;;;1.30;;
5032;SDS011;2535;49.888;8.942;2022-08-18T02:40:42;1.40;;;1.20;;
5032;SDS011;2535;49.888;8.942;2022-08-18T02:43:10;2.80;;;1.10;;
5032;SDS011;2535;49.888;8.942;2022-08-18T02:45:36;4.20;;;1.87;;
5032;SDS011;2535;49.888;8.942;2022-08-18T02:48:04;1.00;;;0.90;;
5032;SDS011;2535;49.888;8.942;2022-08-18T02:50:30;1.60;;;1.27;;
5032;SDS011;2535;49.888;8.942;2022-08-18T02:52:56;1.10;;;1.00;;
5032;SDS011;2535;49.888;8.942;2022-08-18T02:55:22;2.50;;;1.77;;
5032;SDS011;2535;49.888;8.942;2022-08-18T02:57:50;2.83;;;1.73;;
5032;SDS011;2535;49.888;8.942;2022-08-18T03:00:17;29.03;;;2.63;;
5032;SDS011;2535;49.888;8.942;2022-08-18T03:02:46;2.53;;;2.03;;
5032;SDS011;2535;49.888;8.942;2022-08-18T03:05:13;1.80;;;1.13;;
5032;SDS011;2535;49.888;8.942;2022-08-18T03:07:39;1.20;;;1.07;;
5032;SDS011;2535;49.888;8.942;2022-08-18T03:10:05;4.47;;;1.63;;
5032;SDS011;2535;49.888;8.942;2022-08-18T03:12:31;1.47;;;1.37;;
5032;SDS011;2535;49.888;8.942;2022-08-18T03:14:57;7.80;;;2.50;;
5032;SDS011;2535;49.888;8.942;2022-08-18T03:17:26;5.23;;;1.73;;
5032;SDS011;2535;49.888;8.942;2022-08-18T03:19:52;1.20;;;1.00;;
5032;SDS011;2535;49.888;8.942;2022-08-18T03:22:17;1.10;;;1.00;;
5032;SDS011;2535;49.888;8.942;2022-08-18T03:24:43;3.07;;;1.20;;
5032;SDS011;2535;49.888;8.942;2022-08-18T03:27:09;2.70;;;1.10;;
5032;SDS011;2535;49.888;8.942;2022-08-18T03:29:36;2.67;;;1.40;;
5032;SDS011;2535;49.888;8.942;2022-08-18T03:32:03;0.97;;;0.90;;
5032;SDS011;2535;49.888;8.942;2022-08-18T03:34:29;1.17;;;0.90;;
5032;SDS011;2535;49.888;8.942;2022-08-18T03:36:56;1.03;;;0.90;;
5032;SDS011;2535;49.888;8.942;2022-08-18T03:39:22;1.50;;;1.17;;
5032;SDS011;2535;49.888;8.942;2022-08-18T03:41:49;1.30;;;0.90;;
5032;SDS011;2535;49.888;8.942;2022-08-18T03:44:18;2.20;;;2.00;;
5032;SDS011;2535;49.888;8.942;2022-08-18T03:46:44;4.60;;;1.10;;
5032;SDS011;2535;49.888;8.942;2022-08-18T03:49:11;1.20;;;1.10;;
5032;SDS011;2535;49.888;8.942;2022-08-18T03:51:38;1.70;;;1.10;;
5032;SDS011;2535;49.888;8.942;2022-08-18T03:54:07;3.63;;;1.37;;
5032;SDS011;2535;49.888;8.942;2022-08-18T03:56:34;4.53;;;2.70;;
5032;SDS011;2535;49.888;8.942;2022-08-18T03:59:04;1.53;;;1.20;;
5032;SDS011;2535;49.888;8.942;2022-08-18T04:01:32;2.50;;;1.33;;
5032;SDS011;2535;49.888;8.942;2022-08-18T04:04:00;1.57;;;1.43;;
5032;SDS011;2535;49.888;8.942;2022-08-18T04:06:29;1.30;;;1.20;;
5032;SDS011;2535;49.888;8.942;2022-08-18T04:08:57;1.70;;;1.60;;
5032;SDS011;2535;49.888;8.942;2022-08-18T04:11:24;2.20;;;1.07;;
5032;SDS011;2535;49.888;8.942;2022-08-18T04:13:52;5.43;;;1.10;;
5032;SDS011;2535;49.888;8.942;2022-08-18T04:16:21;2.20;;;1.83;;
5032;SDS011;2535;49.888;8.942;2022-08-18T04:18:47;4.90;;;1.40;;
5032;SDS011;2535;49.888;8.942;2022-08-18T04:21:13;1.20;;;0.73;;
5032;SDS011;2535;49.888;8.942;2022-08-18T04:23:39;1.10;;;0.73;;
5032;SDS011;2535;49.888;8.942;2022-08-18T04:26:06;2.77;;;1.83;;
5032;SDS011;2535;49.888;8.942;2022-08-18T04:28:33;1.87;;;1.53;;
5032;SDS011;2535;49.888;8.942;2022-08-18T04:31:05;2.60;;;1.40;;
5032;SDS011;2535;49.888;8.942;2022-08-18T04:33:31;10.20;;;1.30;;
5032;SDS011;2535;49.888;8.942;2022-08-18T04:35:57;3.30;;;1.60;;
5032;SDS011;2535;49.888;8.942;2022-08-18T04:38:26;1.97;;;1.47;;
5032;SDS011;2535;49.888;8.942;2022-08-18T04:40:52;1.33;;;1.23;;
5032;SDS011;2535;49.888;8.942;2022-08-18T04:43:18;5.50;;;1.10;;
5032;SDS011;2535;49.888;8.942;2022-08-18T04:45:44;1.67;;;1.30;;
5032;SDS011;2535;49.888;8.942;2022-08-18T04:48:11;3.07;;;1.77;;
5032;SDS011;2535;49.888;8.942;2022-08-18T04:50:37;2.10;;;1.57;;
5032;SDS011;2535;49.888;8.942;2022-08-18T04:53:04;1.23;;;1.13;;
5032;SDS011;2535;49.888;8.942;2022-08-18T04:55:49;1.37;;;1.20;;
5032;SDS011;2535;49.888;8.942;2022-08-18T04:58:16;1.00;;;0.90;;
5032;SDS011;2535;49.888;8.942;2022-08-18T05:00:43;2.50;;;1.40;;
5032;SDS011;2535;49.888;8.942;2022-08-18T05:03:09;2.60;;;1.33;;
5032;SDS011;2535;49.888;8.942;2022-08-18T05:05:35;7.13;;;1.40;;
5032;SDS011;2535;49.888;8.942;2022-08-18T05:08:01;2.27;;;1.20;;
5032;SDS011;2535;49.888;8.942;2022-08-18T05:10:27;13.93;;;1.47;;
5032;SDS011;2535;49.888;8.942;2022-08-18T05:12:53;1.63;;;1.50;;
5032;SDS011;2535;49.888;8.942;2022-08-18T05:15:19;2.83;;;2.63;;
5032;SDS011;2535;49.888;8.942;2022-08-18T05:17:46;11.53;;;2.70;;
5032;SDS011;2535;49.888;8.942;2022-08-18T05:20:12;5.17;;;2.17;;
5032;SDS011;2535;49.888;8.942;2022-08-18T05:22:38;3.27;;;1.57;;
5032;SDS011;2535;49.888;8.942;2022-08-18T05:25:05;1.77;;;1.33;;
5032;SDS011;2535;49.888;8.942;2022-08-18T05:27:32;2.00;;;1.57;;
5032;SDS011;2535;49.888;8.942;2022-08-18T05:29:59;2.00;;;1.43;;
5032;SDS011;2535;49.888;8.942;2022-08-18T05:32:26;2.07;;;1.53;;
5032;SDS011;2535;49.888;8.942;2022-08-18T05:34:55;2.37;;;1.50;;
5032;SDS011;2535;49.888;8.942;2022-08-18T05:37:30;2.40;;;1.33;;
5032;SDS011;2535;49.888;8.942;2022-08-18T05:40:02;5.93;;;2.00;;
5032;SDS011;2535;49.888;8.942;2022-08-18T05:42:33;1.00;;;0.90;;
5032;SDS011;2535;49.888;8.942;2022-08-18T05:45:00;1.83;;;1.63;;
5032;SDS011;2535;49.888;8.942;2022-08-18T05:47:28;3.67;;;1.90;;
5032;SDS011;2535;49.888;8.942;2022-08-18T05:49:56;5.20;;;1.70;;
5032;SDS011;2535;49.888;8.942;2022-08-18T05:52:36;1.90;;;1.23;;
5032;SDS011;2535;49.888;8.942;2022-08-18T05:55:05;1.10;;;0.80;;
5032;SDS011;2535;49.888;8.942;2022-08-18T05:57:51;2.47;;;1.40;;
5032;SDS011;2535;49.888;8.942;2022-08-18T06:00:19;2.23;;;2.10;;
5032;SDS011;2535;49.888;8.942;2022-08-18T06:05:27;1.87;;;1.60;;
5032;SDS011;2535;49.888;8.942;2022-08-18T06:08:02;1.63;;;1.53;;
5032;SDS011;2535;49.888;8.942;2022-08-18T06:10:30;2.80;;;1.87;;
5032;SDS011;2535;49.888;8.942;2022-08-18T06:12:57;1.93;;;1.73;;
5032;SDS011;2535;49.888;8.942;2022-08-18T06:15:26;3.27;;;1.23;;
5032;SDS011;2535;49.888;8.942;2022-08-18T06:17:58;3.47;;;1.83;;
5032;SDS011;2535;49.888;8.942;2022-08-18T06:20:33;2.27;;;1.87;;
5032;SDS011;2535;49.888;8.942;2022-08-18T06:23:08;2.40;;;1.57;;
5032;SDS011;2535;49.888;8.942;2022-08-18T06:33:11;4.30;;;2.10;;
5032;SDS011;2535;49.888;8.942;2022-08-18T06:35:44;4.87;;;2.13;;
5032;SDS011;2535;49.888;8.942;2022-08-18T06:40:59;4.10;;;1.47;;
5032;SDS011;2535;49.888;8.942;2022-08-18T06:43:25;2.70;;;2.37;;
5032;SDS011;2535;49.888;8.942;2022-08-18T06:45:52;5.27;;;2.50;;
5032;SDS011;2535;49.888;8.942;2022-08-18T06:48:32;5.17;;;2.93;;
5032;SDS011;2535;49.888;8.942;2022-08-18T06:51:03;2.40;;;1.80;;
5032;SDS011;2535;49.888;8.942;2022-08-18T06:58:52;1.50;;;1.00;;
5032;SDS011;2535;49.888;8.942;2022-08-18T07:01:19;3.57;;;1.67;;
5032;SDS011;2535;49.888;8.942;2022-08-18T07:03:51;1.43;;;1.33;;
5032;SDS011;2535;49.888;8.942;2022-08-18T07:08:48;2.40;;;1.67;;
5032;SDS011;2535;49.888;8.942;2022-08-18T07:13:50;2.00;;;1.40;;
5032;SDS011;2535;49.888;8.942;2022-08-18T07:16:19;3.77;;;3.00;;
5032;SDS011;2535;49.888;8.942;2022-08-18T07:18:47;4.67;;;2.43;;
5032;SDS011;2535;49.888;8.942;2022-08-18T07:21:31;2.00;;;1.33;;
5032;SDS011;2535;49.888;8.942;2022-08-18T07:23:58;1.47;;;1.37;;
5032;SDS011;2535;49.888;8.942;2022-08-18T07:26:25;2.37;;;1.57;;
5032;SDS011;2535;49.888;8.942;2022-08-18T07:28:51;2.40;;;1.40;;
5032;SDS011;2535;49.888;8.942;2022-08-18T07:31:33;2.63;;;1.50;;
5032;SDS011;2535;49.888;8.942;2022-08-18T07:34:06;2.93;;;1.97;;
5032;SDS011;2535;49.888;8.942;2022-08-18T07:36:49;2.50;;;1.57;;
5032;SDS011;2535;49.888;8.942;2022-08-18T07:39:27;1.93;;;1.67;;
5032;SDS011;2535;49.888;8.942;2022-08-18T07:47:12;3.80;;;2.57;;
5032;SDS011;2535;49.888;8.942;2022-08-18T07:49:39;3.20;;;2.00;;
5032;SDS011;2535;49.888;8.942;2022-08-18T07:52:26;1.83;;;1.50;;
5032;SDS011;2535;49.888;8.942;2022-08-18T07:55:26;3.13;;;1.90;;
5032;SDS011;2535;49.888;8.942;2022-08-18T07:57:51;5.90;;;2.30;;
5032;SDS011;2535;49.888;8.942;2022-08-18T08:00:21;3.13;;;2.83;;
5032;SDS011;2535;49.888;8.942;2022-08-18T08:02:53;2.90;;;2.60;;
5032;SDS011;2535;49.888;8.942;2022-08-18T08:15:47;1.40;;;0.97;;
5032;SDS011;2535;49.888;8.942;2022-08-18T08:21:13;2.30;;;1.90;;
5032;SDS011;2535;49.888;8.942;2022-08-18T08:23:47;2.00;;;1.57;;
5032;SDS011;2535;49.888;8.942;2022-08-18T08:28:57;2.53;;;1.33;;
5032;SDS011;2535;49.888;8.942;2022-08-18T08:31:31;2.07;;;1.90;;
5032;SDS011;2535;49.888;8.942;2022-08-18T08:34:04;3.97;;;2.50;;
5032;SDS011;2535;49.888;8.942;2022-08-18T08:36:33;3.57;;;3.00;;
5032;SDS011;2535;49.888;8.942;2022-08-18T08:39:02;2.80;;;1.73;;
5032;SDS011;2535;49.888;8.942;2022-08-18T08:46:41;2.60;;;2.07;;
5032;SDS011;2535;49.888;8.942;2022-08-18T08:49:22;9.97;;;2.70;;
5032;SDS011;2535;49.888;8.942;2022-08-18T08:51:49;14.20;;;1.97;;
5032;SDS011;2535;49.888;8.942;2022-08-18T08:54:24;2.43;;;2.23;;
5032;SDS011;2535;49.888;8.942;2022-08-18T08:56:52;3.13;;;2.37;;
5032;SDS011;2535;49.888;8.942;2022-08-18T08:59:20;2.87;;;2.60;;
5032;SDS011;2535;49.888;8.942;2022-08-18T09:10:04;5.37;;;3.50;;
5032;SDS011;2535;49.888;8.942;2022-08-18T09:31:13;3.13;;;2.80;;
5032;SDS011;2535;49.888;8.942;2022-08-18T09:36:53;2.53;;;2.23;;
5032;SDS011;2535;49.888;8.942;2022-08-18T09:39:01;4.13;;;2.10;;
5032;SDS011;2535;49.888;8.942;2022-08-18T09:41:52;3.90;;;2.90;;
5032;SDS011;2535;49.888;8.942;2022-08-18T09:47:04;8.83;;;2.13;;
5032;SDS011;2535;49.888;8.942;2022-08-18T09:49:30;7.23;;;3.57;;
5032;SDS011;2535;49.888;8.942;2022-08-18T10:01:57;18.70;;;7.23;;
5032;SDS011;2535;49.888;8.942;2022-08-18T10:04:24;6.43;;;4.20;;
5032;SDS011;2535;49.888;8.942;2022-08-18T10:06:51;10.67;;;4.57;;
5032;SDS011;2535;49.888;8.942;2022-08-18T10:09:41;9.33;;;5.80;;
5032;SDS011;2535;49.888;8.942;2022-08-18T10:14:43;7.53;;;5.63;;
5032;SDS011;2535;49.888;8.942;2022-08-18T10:17:20;7.77;;;5.00;;
5032;SDS011;2535;49.888;8.942;2022-08-18T10:20:03;6.00;;;5.10;;
5032;SDS011;2535;49.888;8.942;2022-08-18T10:22:36;7.47;;;4.80;;
5032;SDS011;2535;49.888;8.942;2022-08-18T10:25:04;9.33;;;5.03;;
5032;SDS011;2535;49.888;8.942;2022-08-18T10:32:55;5.67;;;4.63;;
5032;SDS011;2535;49.888;8.942;2022-08-18T10:38:13;7.90;;;3.77;;
5032;SDS011;2535;49.888;8.942;2022-08-18T10:40:41;13.37;;;8.13;;
5032;SDS011;2535;49.888;8.942;2022-08-18T10:43:17;8.20;;;5.37;;
5032;SDS011;2535;49.888;8.942;2022-08-18T10:45:45;11.33;;;5.53;;
5032;SDS011;2535;49.888;8.942;2022-08-18T10:48:18;11.40;;;5.67;;
5032;SDS011;2535;49.888;8.942;2022-08-18T10:50:53;8.40;;;5.07;;
5032;SDS011;2535;49.888;8.942;2022-08-18T10:53:29;9.07;;;6.23;;
5032;SDS011;2535;49.888;8.942;2022-08-18T10:56:00;6.73;;;5.43;;
5032;SDS011;2535;49.888;8.942;2022-08-18T11:06:10;6.77;;;4.63;;
5032;SDS011;2535;49.888;8.942;2022-08-18T11:08:43;12.03;;;4.67;;
5032;SDS011;2535;49.888;8.942;2022-08-18T11:11:11;8.87;;;6.00;;
5032;SDS011;2535;49.888;8.942;2022-08-18T11:13:46;9.97;;;5.77;;
5032;SDS011;2535;49.888;8.942;2022-08-18T11:18:43;8.10;;;5.70;;
5032;SDS011;2535;49.888;8.942;2022-08-18T11:24:02;9.80;;;5.90;;
5032;SDS011;2535;49.888;8.942;2022-08-18T11:26:29;10.53;;;4.13;;
5032;SDS011;2535;49.888;8.942;2022-08-18T11:28:55;12.07;;;6.90;;
5032;SDS011;2535;49.888;8.942;2022-08-18T11:31:21;7.30;;;5.50;;
5032;SDS011;2535;49.888;8.942;2022-08-18T11:33:48;7.10;;;4.70;;
5032;SDS011;2535;49.888;8.942;2022-08-18T11:36:14;15.10;;;8.73;;
5032;SDS011;2535;49.888;8.942;2022-08-18T11:38:52;18.43;;;6.07;;
5032;SDS011;2535;49.888;8.942;2022-08-18T11:41:19;6.43;;;5.33;;
5032;SDS011;2535;49.888;8.942;2022-08-18T11:43:47;8.60;;;5.07;;
5032;SDS011;2535;49.888;8.942;2022-08-18T11:46:26;5.30;;;4.20;;
5032;SDS011;2535;49.888;8.942;2022-08-18T11:48:52;21.30;;;8.53;;
5032;SDS011;2535;49.888;8.942;2022-08-18T11:56:21;7.70;;;4.73;;
5032;SDS011;2535;49.888;8.942;2022-08-18T11:58:56;9.30;;;7.87;;
5032;SDS011;2535;49.888;8.942;2022-08-18T12:04:43;12.47;;;6.77;;
5032;SDS011;2535;49.888;8.942;2022-08-18T12:09:21;15.13;;;8.07;;
5032;SDS011;2535;49.888;8.942;2022-08-18T12:11:48;13.77;;;7.80;;
5032;SDS011;2535;49.888;8.942;2022-08-18T12:14:19;16.20;;;6.70;;
5032;SDS011;2535;49.888;8.942;2022-08-18T12:16:46;18.53;;;9.37;;
5032;SDS011;2535;49.888;8.942;2022-08-18T12:19:12;9.57;;;6.83;;
5032;SDS011;2535;49.888;8.942;2022-08-18T12:21:39;15.33;;;8.00;;
5032;SDS011;2535;49.888;8.942;2022-08-18T12:24:07;11.20;;;5.83;;
5032;SDS011;2535;49.888;8.942;2022-08-18T12:26:36;10.33;;;6.27;;
5032;SDS011;2535;49.888;8.942;2022-08-18T12:29:02;10.60;;;8.07;;
5032;SDS011;2535;49.888;8.942;2022-08-18T12:31:28;13.43;;;5.60;;
5032;SDS011;2535;49.888;8.942;2022-08-18T12:33:54;9.23;;;5.97;;
5032;SDS011;2535;49.888;8.942;2022-08-18T12:36:20;4.83;;;3.90;;
5032;SDS011;2535;49.888;8.942;2022-08-18T12:38:46;7.83;;;4.10;;
5032;SDS011;2535;49.888;8.942;2022-08-18T12:41:12;14.73;;;4.57;;
5032;SDS011;2535;49.888;8.942;2022-08-18T12:43:39;14.83;;;6.77;;
5032;SDS011;2535;49.888;8.942;2022-08-18T12:46:05;14.00;;;4.33;;
5032;SDS011;2535;49.888;8.942;2022-08-18T12:48:31;10.70;;;6.33;;
5032;SDS011;2535;49.888;8.942;2022-08-18T12:50:57;6.17;;;3.33;;
5032;SDS011;2535;49.888;8.942;2022-08-18T12:53:23;11.13;;;6.87;;
5032;SDS011;2535;49.888;8.942;2022-08-18T12:55:50;13.23;;;5.93;;
5032;SDS011;2535;49.888;8.942;2022-08-18T12:58:16;11.93;;;7.03;;
5032;SDS011;2535;49.888;8.942;2022-08-18T13:00:42;7.57;;;4.80;;
5032;SDS011;2535;49.888;8.942;2022-08-18T13:03:08;4.03;;;3.57;;
5032;SDS011;2535;49.888;8.942;2022-08-18T13:05:34;9.33;;;5.20;;
5032;SDS011;2535;49.888;8.942;2022-08-18T13:08:01;8.17;;;5.33;;
5032;SDS011;2535;49.888;8.942;2022-08-18T13:10:28;5.17;;;3.17;;
5032;SDS011;2535;49.888;8.942;2022-08-18T13:12:54;3.80;;;2.70;;
5032;SDS011;2535;49.888;8.942;2022-08-18T13:15:20;8.43;;;5.13;;
5032;SDS011;2535;49.888;8.942;2022-08-18T13:17:46;8.93;;;4.30;;
5032;SDS011;2535;49.888;8.942;2022-08-18T13:20:13;8.27;;;3.67;;
5032;SDS011;2535;49.888;8.942;2022-08-18T13:22:39;9.50;;;4.73;;
5032;SDS011;2535;49.888;8.942;2022-08-18T13:25:06;6.80;;;4.53;;
5032;SDS011;2535;49.888;8.942;2022-08-18T13:27:33;5.23;;;3.90;;
5032;SDS011;2535;49.888;8.942;2022-08-18T13:29:59;7.97;;;3.30;;
5032;SDS011;2535;49.888;8.942;2022-08-18T13:32:25;14.47;;;3.60;;
5032;SDS011;2535;49.888;8.942;2022-08-18T13:34:52;7.40;;;5.07;;
5032;SDS011;2535;49.888;8.942;2022-08-18T13:37:18;6.10;;;4.03;;
5032;SDS011;2535;49.888;8.942;2022-08-18T13:39:44;12.93;;;4.40;;
5032;SDS011;2535;49.888;8.942;2022-08-18T13:42:10;9.77;;;3.70;;
5032;SDS011;2535;49.888;8.942;2022-08-18T13:44:36;7.37;;;5.30;;
5032;SDS011;2535;49.888;8.942;2022-08-18T13:47:05;10.63;;;5.27;;
5032;SDS011;2535;49.888;8.942;2022-08-18T13:49:31;8.67;;;5.00;;
5032;SDS011;2535;49.888;8.942;2022-08-18T13:51:57;14.93;;;5.50;;
5032;SDS011;2535;49.888;8.942;2022-08-18T13:54:24;7.60;;;4.13;;
5032;SDS011;2535;49.888;8.942;2022-08-18T13:56:51;4.33;;;3.90;;
5032;SDS011;2535;49.888;8.942;2022-08-18T13:59:17;11.43;;;3.43;;
5032;SDS011;2535;49.888;8.942;2022-08-18T14:01:45;5.83;;;3.43;;
5032;SDS011;2535;49.888;8.942;2022-08-18T14:04:12;3.73;;;2.90;;
5032;SDS011;2535;49.888;8.942;2022-08-18T14:06:38;3.67;;;3.37;;
5032;SDS011;2535;49.888;8.942;2022-08-18T14:09:04;3.80;;;2.70;;
5032;SDS011;2535;49.888;8.942;2022-08-18T14:11:31;9.10;;;3.50;;
5032;SDS011;2535;49.888;8.942;2022-08-18T14:13:58;4.03;;;3.10;;
5032;SDS011;2535;49.888;8.942;2022-08-18T14:16:25;5.80;;;4.20;;
5032;SDS011;2535;49.888;8.942;2022-08-18T14:18:51;6.93;;;2.57;;
5032;SDS011;2535;49.888;8.942;2022-08-18T14:21:38;8.00;;;4.20;;
5032;SDS011;2535;49.888;8.942;2022-08-18T14:24:24;8.53;;;3.80;;
5032;SDS011;2535;49.888;8.942;2022-08-18T14:27:08;3.93;;;2.73;;
5032;SDS011;2535;49.888;8.942;2022-08-18T14:29:34;6.77;;;3.33;;
5032;SDS011;2535;49.888;8.942;2022-08-18T14:32:02;3.17;;;2.30;;
5032;SDS011;2535;49.888;8.942;2022-08-18T14:34:28;5.60;;;3.87;;
5032;SDS011;2535;49.888;8.942;2022-08-18T14:36:54;4.03;;;2.37;;
5032;SDS011;2535;49.888;8.942;2022-08-18T14:39:19;3.07;;;2.50;;
5032;SDS011;2535;49.888;8.942;2022-08-18T14:41:45;2.93;;;2.07;;
5032;SDS011;2535;49.888;8.942;2022-08-18T14:44:11;7.10;;;3.07;;
5032;SDS011;2535;49.888;8.942;2022-08-18T14:46:39;3.10;;;2.17;;
5032;SDS011;2535;49.888;8.942;2022-08-18T14:49:10;3.00;;;1.50;;
5032;SDS011;2535;49.888;8.942;2022-08-18T14:51:36;11.00;;;3.07;;
5032;SDS011;2535;49.888;8.942;2022-08-18T14:54:06;2.50;;;2.23;;
5032;SDS011;2535;49.888;8.942;2022-08-18T14:56:32;2.60;;;2.40;;
5032;SDS011;2535;49.888;8.942;2022-08-18T14:58:59;3.50;;;1.43;;
5032;SDS011;2535;49.888;8.942;2022-08-18T15:01:25;2.33;;;1.53;;
5032;SDS011;2535;49.888;8.942;2022-08-18T15:03:50;3.20;;;2.07;;
5032;SDS011;2535;49.888;8.942;2022-08-18T15:06:18;3.50;;;2.67;;
5032;SDS011;2535;49.888;8.942;2022-08-18T15:08:44;2.93;;;2.30;;
5032;SDS011;2535;49.888;8.942;2022-08-18T15:11:10;1.53;;;1.43;;
5032;SDS011;2535;49.888;8.942;2022-08-18T15:13:37;2.90;;;1.87;;
5032;SDS011;2535;49.888;8.942;2022-08-18T15:16:03;2.03;;;1.63;;
5032;SDS011;2535;49.888;8.942;2022-08-18T15:18:29;1.90;;;1.80;;
5032;SDS011;2535;49.888;8.942;2022-08-18T15:20:55;1.93;;;1.77;;
5032;SDS011;2535;49.888;8.942;2022-08-18T15:23:40;1.40;;;1.00;;
5032;SDS011;2535;49.888;8.942;2022-08-18T15:26:25;2.10;;;1.53;;
5032;SDS011;2535;49.888;8.942;2022-08-18T15:28:51;1.37;;;1.27;;
5032;SDS011;2535;49.888;8.942;2022-08-18T15:31:17;4.47;;;1.73;;
5032;SDS011;2535;49.888;8.942;2022-08-18T15:33:43;3.40;;;2.37;;
5032;SDS011;2535;49.888;8.942;2022-08-18T15:36:10;2.33;;;2.13;;
5032;SDS011;2535;49.888;8.942;2022-08-18T15:38:37;3.27;;;2.33;;
5032;SDS011;2535;49.888;8.942;2022-08-18T15:41:03;1.50;;;1.23;;
5032;SDS011;2535;49.888;8.942;2022-08-18T15:43:30;1.73;;;1.27;;
5032;SDS011;2535;49.888;8.942;2022-08-18T15:45:57;2.07;;;1.30;;
5032;SDS011;2535;49.888;8.942;2022-08-18T15:48:23;2.57;;;1.90;;
5032;SDS011;2535;49.888;8.942;2022-08-18T15:50:49;5.60;;;2.23;;
5032;SDS011;2535;49.888;8.942;2022-08-18T15:53:16;1.40;;;1.30;;
5032;SDS011;2535;49.888;8.942;2022-08-18T15:55:43;3.83;;;2.10;;
5032;SDS011;2535;49.888;8.942;2022-08-18T15:58:10;4.13;;;1.60;;
5032;SDS011;2535;49.888;8.942;2022-08-18T16:00:36;3.53;;;1.67;;
5032;SDS011;2535;49.888;8.942;2022-08-18T16:03:04;2.23;;;1.73;;
5032;SDS011;2535;49.888;8.942;2022-08-18T16:05:32;2.27;;;1.47;;
5032;SDS011;2535;49.888;8.942;2022-08-18T16:07:59;1.50;;;1.20;;
5032;SDS011;2535;49.888;8.942;2022-08-18T16:10:26;3.20;;;2.23;;
5032;SDS011;2535;49.888;8.942;2022-08-18T16:12:52;2.23;;;1.20;;
5032;SDS011;2535;49.888;8.942;2022-08-18T16:15:20;3.90;;;2.67;;
5032;SDS011;2535;49.888;8.942;2022-08-18T16:17:47;2.90;;;1.90;;
5032;SDS011;2535;49.888;8.942;2022-08-18T16:20:15;1.80;;;1.40;;
5032;SDS011;2535;49.888;8.942;2022-08-18T16:22:42;2.10;;;1.87;;
5032;SDS011;2535;49.888;8.942;2022-08-18T16:25:08;23.10;;;2.63;;
5032;SDS011;2535;49.888;8.942;2022-08-18T16:27:34;1.87;;;1.53;;
5032;SDS011;2535;49.888;8.942;2022-08-18T16:30:05;2.77;;;2.20;;
5032;SDS011;2535;49.888;8.942;2022-08-18T16:32:31;3.37;;;2.67;;
5032;SDS011;2535;49.888;8.942;2022-08-18T16:34:57;1.47;;;1.37;;
5032;SDS011;2535;49.888;8.942;2022-08-18T16:37:23;4.17;;;1.40;;
5032;SDS011;2535;49.888;8.942;2022-08-18T16:39:50;3.57;;;1.67;;
5032;SDS011;2535;49.888;8.942;2022-08-18T16:42:16;2.60;;;1.80;;
5032;SDS011;2535;49.888;8.942;2022-08-18T16:44:42;2.77;;;2.13;;
5032;SDS011;2535;49.888;8.942;2022-08-18T16:47:09;1.93;;;1.73;;
5032;SDS011;2535;49.888;8.942;2022-08-18T16:49:37;2.70;;;2.47;;
5032;SDS011;2535;49.888;8.942;2022-08-18T16:52:03;3.83;;;2.17;;
5032;SDS011;2535;49.888;8.942;2022-08-18T16:54:30;3.00;;;2.50;;
5032;SDS011;2535;49.888;8.942;2022-08-18T16:56:57;3.80;;;1.77;;
5032;SDS011;2535;49.888;8.942;2022-08-18T16:59:23;3.57;;;1.83;;
5032;SDS011;2535;49.888;8.942;2022-08-18T17:02:08;1.83;;;1.73;;
5032;SDS011;2535;49.888;8.942;2022-08-18T17:04:53;3.30;;;2.23;;
5032;SDS011;2535;49.888;8.942;2022-08-18T17:07:19;2.03;;;1.73;;
5032;SDS011;2535;49.888;8.942;2022-08-18T17:09:45;3.23;;;2.27;;
5032;SDS011;2535;49.888;8.942;2022-08-18T17:12:11;4.80;;;2.40;;
5032;SDS011;2535;49.888;8.942;2022-08-18T17:14:37;1.57;;;1.10;;
5032;SDS011;2535;49.888;8.942;2022-08-18T17:17:03;9.43;;;1.97;;
5032;SDS011;2535;49.888;8.942;2022-08-18T17:19:30;4.17;;;1.60;;
5032;SDS011;2535;49.888;8.942;2022-08-18T17:21:57;2.67;;;2.10;;
5032;SDS011;2535;49.888;8.942;2022-08-18T17:24:24;3.27;;;2.03;;
5032;SDS011;2535;49.888;8.942;2022-08-18T17:26:52;1.53;;;1.43;;
5032;SDS011;2535;49.888;8.942;2022-08-18T17:31:58;2.07;;;1.77;;
5032;SDS011;2535;49.888;8.942;2022-08-18T17:34:29;5.20;;;2.37;;